sensor_id;sensor_type;location;lat;lon;timestamp;P1;durP1;ratioP1;P2;durP2;ratioP2
19671;SDS011;9983;51.114;13.788;2023-07-24T00:01:22;2.90;;;2.60;;
19671;SDS011;9983;51.114;13.788;2023-07-24T00:06:23;2.75;;;2.55;;
19671;SDS011;9983;51.114;13.788;2023-07-24T00:11:23;2.88;;;2.67;;
19671;SDS011;9983;51.114;13.788;2023-07-24T00:16:23;2.88;;;2.67;;
19671;SDS011;9983;51.114;13.788;2023-07-24T00:21:24;2.80;;;2.60;;
19671;SDS011;9983;51.114;13.788;2023-07-24T00:26:24;2.50;;;2.30;;
19671;SDS011;9983;51.114;13.788;2023-07-24T00:31:24;3.67;;;2.95;;
19671;SDS011;9983;51.114;13.788;2023-07-24T00:36:24;2.97;;;2.70;;
19671;SDS011;9983;51.114;13.788;2023-07-24T00:41:25;4.05;;;2.50;;
19671;SDS011;9983;51.114;13.788;2023-07-24T00:46:25;3.38;;;2.90;;
19671;SDS011;9983;51.114;13.788;2023-07-24T00:51:26;2.60;;;2.40;;
19671;SDS011;9983;51.114;13.788;2023-07-24T00:56:27;2.72;;;2.50;;
19671;SDS011;9983;51.114;13.788;2023-07-24T01:01:28;3.15;;;2.88;;
19671;SDS011;9983;51.114;13.788;2023-07-24T01:06:29;3.05;;;2.53;;
19671;SDS011;9983;51.114;13.788;2023-07-24T01:11:33;3.13;;;2.83;;
19671;SDS011;9983;51.114;13.788;2023-07-24T01:16:41;2.70;;;2.50;;
19671;SDS011;9983;51.114;13.788;2023-07-24T01:21:58;3.17;;;2.85;;
19671;SDS011;9983;51.114;13.788;2023-07-24T01:27:06;3.17;;;2.72;;
19671;SDS011;9983;51.114;13.788;2023-07-24T01:32:07;3.95;;;2.90;;
19671;SDS011;9983;51.114;13.788;2023-07-24T01:37:08;3.42;;;2.72;;
19671;SDS011;9983;51.114;13.788;2023-07-24T01:42:11;3.47;;;3.17;;
19671;SDS011;9983;51.114;13.788;2023-07-24T01:47:12;2.83;;;2.63;;
19671;SDS011;9983;51.114;13.788;2023-07-24T01:52:13;3.85;;;2.80;;
19671;SDS011;9983;51.114;13.788;2023-07-24T01:57:13;4.25;;;2.97;;
19671;SDS011;9983;51.114;13.788;2023-07-24T02:02:14;2.83;;;2.63;;
19671;SDS011;9983;51.114;13.788;2023-07-24T02:07:14;3.43;;;3.03;;
19671;SDS011;9983;51.114;13.788;2023-07-24T02:12:14;3.50;;;3.20;;
19671;SDS011;9983;51.114;13.788;2023-07-24T02:17:15;5.50;;;2.63;;
19671;SDS011;9983;51.114;13.788;2023-07-24T02:22:15;4.00;;;3.60;;
19671;SDS011;9983;51.114;13.788;2023-07-24T02:27:26;3.72;;;3.33;;
19671;SDS011;9983;51.114;13.788;2023-07-24T02:32:28;3.20;;;2.90;;
19671;SDS011;9983;51.114;13.788;2023-07-24T02:37:28;3.28;;;2.97;;
19671;SDS011;9983;51.114;13.788;2023-07-24T02:42:28;3.92;;;3.53;;
19671;SDS011;9983;51.114;13.788;2023-07-24T02:47:29;3.53;;;2.90;;
19671;SDS011;9983;51.114;13.788;2023-07-24T02:52:29;3.47;;;3.17;;
19671;SDS011;9983;51.114;13.788;2023-07-24T02:57:29;3.75;;;3.42;;
19671;SDS011;9983;51.114;13.788;2023-07-24T03:02:29;4.57;;;3.35;;
19671;SDS011;9983;51.114;13.788;2023-07-24T03:07:30;3.40;;;3.10;;
19671;SDS011;9983;51.114;13.788;2023-07-24T03:12:30;4.80;;;3.53;;
19671;SDS011;9983;51.114;13.788;2023-07-24T03:17:30;3.75;;;3.42;;
19671;SDS011;9983;51.114;13.788;2023-07-24T03:22:31;3.65;;;2.85;;
19671;SDS011;9983;51.114;13.788;2023-07-24T03:27:31;3.22;;;2.92;;
19671;SDS011;9983;51.114;13.788;2023-07-24T03:32:31;3.40;;;3.10;;
19671;SDS011;9983;51.114;13.788;2023-07-24T03:37:32;3.30;;;3.00;;
19671;SDS011;9983;51.114;13.788;2023-07-24T03:42:33;3.03;;;2.78;;
19671;SDS011;9983;51.114;13.788;2023-07-24T03:47:34;5.13;;;3.53;;
19671;SDS011;9983;51.114;13.788;2023-07-24T03:52:34;5.18;;;3.50;;
19671;SDS011;9983;51.114;13.788;2023-07-24T03:57:34;3.95;;;3.55;;
19671;SDS011;9983;51.114;13.788;2023-07-24T04:02:35;3.80;;;2.97;;
19671;SDS011;9983;51.114;13.788;2023-07-24T04:07:35;3.03;;;2.83;;
19671;SDS011;9983;51.114;13.788;2023-07-24T04:12:36;4.35;;;3.28;;
19671;SDS011;9983;51.114;13.788;2023-07-24T04:17:37;4.13;;;3.45;;
19671;SDS011;9983;51.114;13.788;2023-07-24T04:22:38;5.60;;;3.83;;
19671;SDS011;9983;51.114;13.788;2023-07-24T04:27:39;5.18;;;3.63;;
19671;SDS011;9983;51.114;13.788;2023-07-24T04:32:40;4.10;;;3.40;;
19671;SDS011;9983;51.114;13.788;2023-07-24T04:37:40;4.00;;;3.50;;
19671;SDS011;9983;51.114;13.788;2023-07-24T04:42:40;5.03;;;3.78;;
19671;SDS011;9983;51.114;13.788;2023-07-24T04:47:40;6.05;;;3.28;;
19671;SDS011;9983;51.114;13.788;2023-07-24T04:52:42;4.50;;;3.45;;
19671;SDS011;9983;51.114;13.788;2023-07-24T04:57:42;3.50;;;3.20;;
19671;SDS011;9983;51.114;13.788;2023-07-24T05:02:42;5.18;;;3.58;;
19671;SDS011;9983;51.114;13.788;2023-07-24T05:07:42;3.97;;;3.58;;
19671;SDS011;9983;51.114;13.788;2023-07-24T05:12:43;5.43;;;3.80;;
19671;SDS011;9983;51.114;13.788;2023-07-24T05:17:43;7.45;;;4.07;;
19671;SDS011;9983;51.114;13.788;2023-07-24T05:22:44;4.35;;;3.33;;
19671;SDS011;9983;51.114;13.788;2023-07-24T05:27:44;3.80;;;2.85;;
19671;SDS011;9983;51.114;13.788;2023-07-24T05:32:44;5.80;;;3.85;;
19671;SDS011;9983;51.114;13.788;2023-07-24T05:37:45;3.53;;;3.22;;
19671;SDS011;9983;51.114;13.788;2023-07-24T05:42:45;4.45;;;3.20;;
19671;SDS011;9983;51.114;13.788;2023-07-24T05:47:46;5.28;;;3.45;;
19671;SDS011;9983;51.114;13.788;2023-07-24T05:52:47;3.95;;;3.50;;
19671;SDS011;9983;51.114;13.788;2023-07-24T05:57:47;3.92;;;3.45;;
19671;SDS011;9983;51.114;13.788;2023-07-24T06:02:47;3.35;;;3.00;;
19671;SDS011;9983;51.114;13.788;2023-07-24T06:07:48;4.10;;;3.70;;
19671;SDS011;9983;51.114;13.788;2023-07-24T06:12:48;3.75;;;3.22;;
19671;SDS011;9983;51.114;13.788;2023-07-24T06:17:48;3.00;;;2.70;;
19671;SDS011;9983;51.114;13.788;2023-07-24T06:22:49;3.70;;;3.40;;
19671;SDS011;9983;51.114;13.788;2023-07-24T06:27:49;5.05;;;3.25;;
19671;SDS011;9983;51.114;13.788;2023-07-24T06:32:49;4.40;;;3.25;;
19671;SDS011;9983;51.114;13.788;2023-07-24T06:37:50;4.72;;;3.80;;
19671;SDS011;9983;51.114;13.788;2023-07-24T06:42:50;5.18;;;3.17;;
19671;SDS011;9983;51.114;13.788;2023-07-24T06:47:50;4.68;;;4.20;;
19671;SDS011;9983;51.114;13.788;2023-07-24T06:52:50;3.90;;;3.50;;
19671;SDS011;9983;51.114;13.788;2023-07-24T06:57:53;4.20;;;3.78;;
19671;SDS011;9983;51.114;13.788;2023-07-24T07:02:53;6.35;;;3.67;;
19671;SDS011;9983;51.114;13.788;2023-07-24T07:07:54;4.60;;;3.85;;
19671;SDS011;9983;51.114;13.788;2023-07-24T07:12:54;6.07;;;3.63;;
19671;SDS011;9983;51.114;13.788;2023-07-24T07:17:55;8.52;;;3.75;;
19671;SDS011;9983;51.114;13.788;2023-07-24T07:22:55;5.03;;;3.78;;
19671;SDS011;9983;51.114;13.788;2023-07-24T07:27:55;5.72;;;3.40;;
19671;SDS011;9983;51.114;13.788;2023-07-24T07:32:55;4.07;;;3.67;;
19671;SDS011;9983;51.114;13.788;2023-07-24T07:37:56;4.25;;;3.85;;
19671;SDS011;9983;51.114;13.788;2023-07-24T07:42:56;4.20;;;3.80;;
19671;SDS011;9983;51.114;13.788;2023-07-24T07:47:57;4.03;;;3.63;;
19671;SDS011;9983;51.114;13.788;2023-07-24T07:52:58;4.18;;;3.83;;
19671;SDS011;9983;51.114;13.788;2023-07-24T07:57:58;4.73;;;3.60;;
19671;SDS011;9983;51.114;13.788;2023-07-24T08:02:59;4.00;;;3.60;;
19671;SDS011;9983;51.114;13.788;2023-07-24T08:07:59;5.05;;;3.95;;
19671;SDS011;9983;51.114;13.788;2023-07-24T08:12:59;4.13;;;3.60;;
19671;SDS011;9983;51.114;13.788;2023-07-24T08:17:59;3.80;;;3.50;;
19671;SDS011;9983;51.114;13.788;2023-07-24T08:23:00;4.70;;;3.80;;
19671;SDS011;9983;51.114;13.788;2023-07-24T08:28:00;5.65;;;4.32;;
19671;SDS011;9983;51.114;13.788;2023-07-24T08:33:00;4.40;;;4.00;;
19671;SDS011;9983;51.114;13.788;2023-07-24T08:38:01;4.10;;;3.70;;
19671;SDS011;9983;51.114;13.788;2023-07-24T08:43:01;6.68;;;4.13;;
19671;SDS011;9983;51.114;13.788;2023-07-24T08:48:01;5.47;;;4.15;;
19671;SDS011;9983;51.114;13.788;2023-07-24T08:53:02;4.38;;;3.90;;
19671;SDS011;9983;51.114;13.788;2023-07-24T08:58:02;4.80;;;4.40;;
19671;SDS011;9983;51.114;13.788;2023-07-24T09:03:05;4.97;;;4.38;;
19671;SDS011;9983;51.114;13.788;2023-07-24T09:08:06;5.47;;;4.60;;
19671;SDS011;9983;51.114;13.788;2023-07-24T09:13:06;5.00;;;4.45;;
19671;SDS011;9983;51.114;13.788;2023-07-24T09:18:07;5.47;;;4.97;;
19671;SDS011;9983;51.114;13.788;2023-07-24T09:23:08;5.45;;;4.93;;
19671;SDS011;9983;51.114;13.788;2023-07-24T09:28:10;5.03;;;4.53;;
19671;SDS011;9983;51.114;13.788;2023-07-24T09:33:14;5.47;;;4.90;;
19671;SDS011;9983;51.114;13.788;2023-07-24T09:38:14;5.60;;;4.65;;
19671;SDS011;9983;51.114;13.788;2023-07-24T09:48:18;5.25;;;4.85;;
19671;SDS011;9983;51.114;13.788;2023-07-24T09:53:32;5.45;;;4.93;;
19671;SDS011;9983;51.114;13.788;2023-07-24T09:58:37;5.43;;;4.70;;
19671;SDS011;9983;51.114;13.788;2023-07-24T10:03:39;5.60;;;5.00;;
19671;SDS011;9983;51.114;13.788;2023-07-24T10:08:45;5.97;;;5.35;;
19671;SDS011;9983;51.114;13.788;2023-07-24T10:13:45;11.40;;;6.05;;
19671;SDS011;9983;51.114;13.788;2023-07-24T10:18:46;7.93;;;5.38;;
19671;SDS011;9983;51.114;13.788;2023-07-24T10:23:46;5.83;;;5.13;;
19671;SDS011;9983;51.114;13.788;2023-07-24T10:28:47;6.37;;;5.37;;
19671;SDS011;9983;51.114;13.788;2023-07-24T10:33:48;6.22;;;5.32;;
19671;SDS011;9983;51.114;13.788;2023-07-24T10:38:53;7.38;;;5.28;;
19671;SDS011;9983;51.114;13.788;2023-07-24T10:43:59;5.22;;;4.65;;
19671;SDS011;9983;51.114;13.788;2023-07-24T10:49:00;5.93;;;5.22;;
19671;SDS011;9983;51.114;13.788;2023-07-24T10:54:02;5.05;;;4.50;;
19671;SDS011;9983;51.114;13.788;2023-07-24T10:59:06;6.40;;;5.63;;
19671;SDS011;9983;51.114;13.788;2023-07-24T11:04:06;5.60;;;5.03;;
19671;SDS011;9983;51.114;13.788;2023-07-24T11:09:07;5.95;;;4.82;;
19671;SDS011;9983;51.114;13.788;2023-07-24T11:14:13;4.97;;;4.43;;
19671;SDS011;9983;51.114;13.788;2023-07-24T11:19:13;5.70;;;4.95;;
19671;SDS011;9983;51.114;13.788;2023-07-24T11:24:22;6.28;;;5.60;;
19671;SDS011;9983;51.114;13.788;2023-07-24T11:29:23;6.25;;;5.60;;
19671;SDS011;9983;51.114;13.788;2023-07-24T11:34:23;6.93;;;5.47;;
19671;SDS011;9983;51.114;13.788;2023-07-24T11:39:24;6.30;;;5.70;;
19671;SDS011;9983;51.114;13.788;2023-07-24T11:44:26;7.25;;;5.57;;
19671;SDS011;9983;51.114;13.788;2023-07-24T11:49:29;6.18;;;5.57;;
19671;SDS011;9983;51.114;13.788;2023-07-24T11:54:34;7.90;;;6.20;;
19671;SDS011;9983;51.114;13.788;2023-07-24T11:59:38;8.75;;;5.60;;
19671;SDS011;9983;51.114;13.788;2023-07-24T12:04:39;7.43;;;6.25;;
19671;SDS011;9983;51.114;13.788;2023-07-24T12:09:39;6.63;;;5.93;;
19671;SDS011;9983;51.114;13.788;2023-07-24T12:14:40;6.77;;;5.57;;
19671;SDS011;9983;51.114;13.788;2023-07-24T12:19:40;7.93;;;6.03;;
19671;SDS011;9983;51.114;13.788;2023-07-24T12:24:40;7.80;;;6.07;;
19671;SDS011;9983;51.114;13.788;2023-07-24T12:29:40;5.57;;;5.07;;
19671;SDS011;9983;51.114;13.788;2023-07-24T12:34:41;6.90;;;5.97;;
19671;SDS011;9983;51.114;13.788;2023-07-24T12:39:41;5.70;;;5.20;;
19671;SDS011;9983;51.114;13.788;2023-07-24T12:44:41;6.65;;;5.95;;
19671;SDS011;9983;51.114;13.788;2023-07-24T12:49:42;6.55;;;5.70;;
19671;SDS011;9983;51.114;13.788;2023-07-24T12:54:42;7.60;;;5.78;;
19671;SDS011;9983;51.114;13.788;2023-07-24T12:59:43;5.38;;;4.38;;
19671;SDS011;9983;51.114;13.788;2023-07-24T13:04:43;6.82;;;5.38;;
19671;SDS011;9983;51.114;13.788;2023-07-24T13:09:43;6.60;;;5.45;;
19671;SDS011;9983;51.114;13.788;2023-07-24T13:14:44;9.02;;;6.53;;
19671;SDS011;9983;51.114;13.788;2023-07-24T13:19:44;8.77;;;6.97;;
19671;SDS011;9983;51.114;13.788;2023-07-24T13:24:44;8.80;;;6.65;;
19671;SDS011;9983;51.114;13.788;2023-07-24T13:29:45;8.70;;;7.05;;
19671;SDS011;9983;51.114;13.788;2023-07-24T13:34:45;6.97;;;5.97;;
19671;SDS011;9983;51.114;13.788;2023-07-24T13:39:47;7.30;;;6.28;;
19671;SDS011;9983;51.114;13.788;2023-07-24T13:44:47;7.97;;;6.35;;
19671;SDS011;9983;51.114;13.788;2023-07-24T13:49:48;6.55;;;5.85;;
19671;SDS011;9983;51.114;13.788;2023-07-24T13:54:48;7.82;;;5.82;;
19671;SDS011;9983;51.114;13.788;2023-07-24T13:59:48;5.85;;;5.25;;
19671;SDS011;9983;51.114;13.788;2023-07-24T14:04:48;8.40;;;6.75;;
19671;SDS011;9983;51.114;13.788;2023-07-24T14:09:49;7.07;;;6.03;;
19671;SDS011;9983;51.114;13.788;2023-07-24T14:14:49;6.43;;;5.47;;
19671;SDS011;9983;51.114;13.788;2023-07-24T14:19:49;5.50;;;5.00;;
19671;SDS011;9983;51.114;13.788;2023-07-24T14:24:49;5.90;;;5.30;;
19671;SDS011;9983;51.114;13.788;2023-07-24T14:29:50;5.32;;;4.82;;
19671;SDS011;9983;51.114;13.788;2023-07-24T14:34:50;4.70;;;4.23;;
19671;SDS011;9983;51.114;13.788;2023-07-24T14:39:51;4.47;;;4.07;;
19671;SDS011;9983;51.114;13.788;2023-07-24T14:44:52;4.60;;;4.20;;
19671;SDS011;9983;51.114;13.788;2023-07-24T14:49:52;4.78;;;4.10;;
19671;SDS011;9983;51.114;13.788;2023-07-24T14:54:52;4.88;;;4.15;;
19671;SDS011;9983;51.114;13.788;2023-07-24T14:59:52;5.22;;;4.28;;
19671;SDS011;9983;51.114;13.788;2023-07-24T15:04:53;5.13;;;4.55;;
19671;SDS011;9983;51.114;13.788;2023-07-24T15:09:53;5.50;;;5.00;;
19671;SDS011;9983;51.114;13.788;2023-07-24T15:14:54;5.03;;;4.25;;
19671;SDS011;9983;51.114;13.788;2023-07-24T15:19:54;6.28;;;5.55;;
19671;SDS011;9983;51.114;13.788;2023-07-24T15:24:54;5.60;;;5.10;;
19671;SDS011;9983;51.114;13.788;2023-07-24T15:29:55;6.13;;;5.25;;
19671;SDS011;9983;51.114;13.788;2023-07-24T15:34:55;8.43;;;5.40;;
19671;SDS011;9983;51.114;13.788;2023-07-24T15:39:56;6.00;;;5.13;;
19671;SDS011;9983;51.114;13.788;2023-07-24T15:44:59;5.55;;;4.82;;
19671;SDS011;9983;51.114;13.788;2023-07-24T15:49:59;6.63;;;5.40;;
19671;SDS011;9983;51.114;13.788;2023-07-24T15:55:02;5.93;;;5.32;;
19671;SDS011;9983;51.114;13.788;2023-07-24T16:00:02;6.35;;;5.75;;
19671;SDS011;9983;51.114;13.788;2023-07-24T16:05:05;6.53;;;5.93;;
19671;SDS011;9983;51.114;13.788;2023-07-24T16:10:16;6.35;;;5.70;;
19671;SDS011;9983;51.114;13.788;2023-07-24T16:15:17;6.70;;;6.03;;
19671;SDS011;9983;51.114;13.788;2023-07-24T16:20:17;6.57;;;5.93;;
19671;SDS011;9983;51.114;13.788;2023-07-24T16:25:17;6.67;;;5.93;;
19671;SDS011;9983;51.114;13.788;2023-07-24T16:30:18;6.77;;;6.17;;
19671;SDS011;9983;51.114;13.788;2023-07-24T16:35:18;6.75;;;6.05;;
19671;SDS011;9983;51.114;13.788;2023-07-24T16:40:18;6.60;;;6.00;;
19671;SDS011;9983;51.114;13.788;2023-07-24T16:45:19;7.60;;;6.80;;
19671;SDS011;9983;51.114;13.788;2023-07-24T16:50:19;8.10;;;6.05;;
19671;SDS011;9983;51.114;13.788;2023-07-24T16:55:19;7.13;;;6.40;;
19671;SDS011;9983;51.114;13.788;2023-07-24T17:00:19;9.35;;;6.47;;
19671;SDS011;9983;51.114;13.788;2023-07-24T17:05:20;7.63;;;6.40;;
19671;SDS011;9983;51.114;13.788;2023-07-24T17:10:20;9.27;;;6.47;;
19671;SDS011;9983;51.114;13.788;2023-07-24T17:15:21;7.65;;;6.53;;
19671;SDS011;9983;51.114;13.788;2023-07-24T17:20:21;8.13;;;6.80;;
19671;SDS011;9983;51.114;13.788;2023-07-24T17:25:21;8.70;;;6.70;;
19671;SDS011;9983;51.114;13.788;2023-07-24T17:30:22;7.28;;;6.57;;
19671;SDS011;9983;51.114;13.788;2023-07-24T17:35:22;9.75;;;6.60;;
19671;SDS011;9983;51.114;13.788;2023-07-24T17:40:22;7.20;;;6.50;;
19671;SDS011;9983;51.114;13.788;2023-07-24T17:45:22;8.70;;;6.30;;
19671;SDS011;9983;51.114;13.788;2023-07-24T17:50:23;8.05;;;6.78;;
19671;SDS011;9983;51.114;13.788;2023-07-24T17:55:23;8.52;;;6.82;;
19671;SDS011;9983;51.114;13.788;2023-07-24T18:00:23;7.65;;;6.68;;
19671;SDS011;9983;51.114;13.788;2023-07-24T18:05:24;8.20;;;6.70;;
19671;SDS011;9983;51.114;13.788;2023-07-24T18:10:24;7.22;;;6.50;;
19671;SDS011;9983;51.114;13.788;2023-07-24T18:15:24;7.67;;;6.77;;
19671;SDS011;9983;51.114;13.788;2023-07-24T18:20:25;7.10;;;6.38;;
19671;SDS011;9983;51.114;13.788;2023-07-24T18:25:25;7.15;;;6.40;;
19671;SDS011;9983;51.114;13.788;2023-07-24T18:30:25;9.10;;;6.55;;
19671;SDS011;9983;51.114;13.788;2023-07-24T18:35:28;6.35;;;5.75;;
19671;SDS011;9983;51.114;13.788;2023-07-24T18:40:29;7.05;;;6.35;;
19671;SDS011;9983;51.114;13.788;2023-07-24T18:45:30;6.95;;;6.25;;
19671;SDS011;9983;51.114;13.788;2023-07-24T18:50:30;7.05;;;5.60;;
19671;SDS011;9983;51.114;13.788;2023-07-24T18:55:30;7.40;;;6.53;;
19671;SDS011;9983;51.114;13.788;2023-07-24T19:00:30;7.57;;;6.03;;
19671;SDS011;9983;51.114;13.788;2023-07-24T19:05:31;8.23;;;3.30;;
19671;SDS011;9983;51.114;13.788;2023-07-24T19:10:32;6.10;;;3.15;;
19671;SDS011;9983;51.114;13.788;2023-07-24T19:15:33;12.57;;;2.45;;
19671;SDS011;9983;51.114;13.788;2023-07-24T19:20:33;3.20;;;2.63;;
19671;SDS011;9983;51.114;13.788;2023-07-24T19:25:34;3.47;;;2.33;;
19671;SDS011;9983;51.114;13.788;2023-07-24T19:30:34;3.30;;;2.55;;
19671;SDS011;9983;51.114;13.788;2023-07-24T19:35:35;3.72;;;2.50;;
19671;SDS011;9983;51.114;13.788;2023-07-24T19:40:35;2.58;;;1.95;;
19671;SDS011;9983;51.114;13.788;2023-07-24T19:45:37;4.50;;;2.17;;
19671;SDS011;9983;51.114;13.788;2023-07-24T19:50:38;2.47;;;1.77;;
19671;SDS011;9983;51.114;13.788;2023-07-24T19:55:46;2.28;;;1.98;;
19671;SDS011;9983;51.114;13.788;2023-07-24T20:00:48;2.88;;;1.83;;
19671;SDS011;9983;51.114;13.788;2023-07-24T20:05:50;5.38;;;2.03;;
19671;SDS011;9983;51.114;13.788;2023-07-24T20:11:01;2.75;;;2.05;;
19671;SDS011;9983;51.114;13.788;2023-07-24T20:16:05;4.82;;;1.85;;
19671;SDS011;9983;51.114;13.788;2023-07-24T20:21:05;2.43;;;1.80;;
19671;SDS011;9983;51.114;13.788;2023-07-24T20:26:05;3.47;;;2.45;;
19671;SDS011;9983;51.114;13.788;2023-07-24T20:31:06;3.35;;;2.00;;
19671;SDS011;9983;51.114;13.788;2023-07-24T20:36:06;6.00;;;2.17;;
19671;SDS011;9983;51.114;13.788;2023-07-24T20:41:08;4.10;;;2.28;;
19671;SDS011;9983;51.114;13.788;2023-07-24T20:46:11;2.88;;;2.22;;
19671;SDS011;9983;51.114;13.788;2023-07-24T20:51:14;3.35;;;2.40;;
19671;SDS011;9983;51.114;13.788;2023-07-24T20:56:18;3.22;;;2.33;;
19671;SDS011;9983;51.114;13.788;2023-07-24T21:01:21;4.13;;;2.30;;
19671;SDS011;9983;51.114;13.788;2023-07-24T21:06:22;3.45;;;2.35;;
19671;SDS011;9983;51.114;13.788;2023-07-24T21:11:23;2.75;;;2.17;;
19671;SDS011;9983;51.114;13.788;2023-07-24T21:16:23;4.57;;;2.67;;
19671;SDS011;9983;51.114;13.788;2023-07-24T21:21:23;2.40;;;2.20;;
19671;SDS011;9983;51.114;13.788;2023-07-24T21:26:24;5.60;;;2.38;;
19671;SDS011;9983;51.114;13.788;2023-07-24T21:31:24;3.65;;;2.40;;
19671;SDS011;9983;51.114;13.788;2023-07-24T21:36:24;2.42;;;2.20;;
19671;SDS011;9983;51.114;13.788;2023-07-24T21:41:24;3.22;;;2.40;;
19671;SDS011;9983;51.114;13.788;2023-07-24T21:46:25;3.88;;;2.72;;
19671;SDS011;9983;51.114;13.788;2023-07-24T21:51:25;3.08;;;2.53;;
19671;SDS011;9983;51.114;13.788;2023-07-24T21:56:25;3.13;;;2.67;;
19671;SDS011;9983;51.114;13.788;2023-07-24T22:01:26;2.92;;;2.58;;
19671;SDS011;9983;51.114;13.788;2023-07-24T22:06:26;3.57;;;2.60;;
19671;SDS011;9983;51.114;13.788;2023-07-24T22:11:26;3.15;;;2.80;;
19671;SDS011;9983;51.114;13.788;2023-07-24T22:16:27;2.80;;;2.60;;
19671;SDS011;9983;51.114;13.788;2023-07-24T22:21:28;3.00;;;2.70;;
19671;SDS011;9983;51.114;13.788;2023-07-24T22:26:29;3.70;;;2.50;;
19671;SDS011;9983;51.114;13.788;2023-07-24T22:31:29;2.70;;;2.50;;
19671;SDS011;9983;51.114;13.788;2023-07-24T22:36:30;3.58;;;2.80;;
19671;SDS011;9983;51.114;13.788;2023-07-24T22:41:30;3.45;;;2.42;;
19671;SDS011;9983;51.114;13.788;2023-07-24T22:46:31;3.00;;;2.67;;
19671;SDS011;9983;51.114;13.788;2023-07-24T22:51:31;2.93;;;2.57;;
19671;SDS011;9983;51.114;13.788;2023-07-24T22:56:31;3.15;;;2.28;;
19671;SDS011;9983;51.114;13.788;2023-07-24T23:01:32;2.85;;;2.47;;
19671;SDS011;9983;51.114;13.788;2023-07-24T23:06:32;4.60;;;2.75;;
19671;SDS011;9983;51.114;13.788;2023-07-24T23:11:32;2.78;;;2.50;;
19671;SDS011;9983;51.114;13.788;2023-07-24T23:16:33;3.85;;;2.65;;
19671;SDS011;9983;51.114;13.788;2023-07-24T23:21:33;2.63;;;2.42;;
19671;SDS011;9983;51.114;13.788;2023-07-24T23:26:33;3.08;;;2.55;;
19671;SDS011;9983;51.114;13.788;2023-07-24T23:31:34;2.63;;;2.25;;
19671;SDS011;9983;51.114;13.788;2023-07-24T23:36:34;4.25;;;2.47;;
19671;SDS011;9983;51.114;13.788;2023-07-24T23:41:34;2.83;;;2.13;;
19671;SDS011;9983;51.114;13.788;2023-07-24T23:46:35;3.42;;;2.55;;
19671;SDS011;9983;51.114;13.788;2023-07-24T23:51:35;3.40;;;2.37;;
19671;SDS011;9983;51.114;13.788;2023-07-24T23:56:36;2.42;;;2.22;;
